createdAt,value
2018-08-11T00:00:52.876Z,19.77
2018-08-11T00:03:22.081Z,19.77
2018-08-11T00:05:51.276Z,19.56
2018-08-11T00:08:20.481Z,19.53
2018-08-11T00:10:49.590Z,19.52
2018-08-11T00:13:18.825Z,19.36
2018-08-11T00:15:47.970Z,19.21
2018-08-11T00:18:17.169Z,19.27
2018-08-11T00:20:46.430Z,19.01
2018-08-11T00:23:15.688Z,18.98
2018-08-11T00:25:44.868Z,17.96
2018-08-11T00:28:14.074Z,17.88
2018-08-11T00:30:43.209Z,18.36
2018-08-11T00:33:12.468Z,18.48
2018-08-11T00:35:41.638Z,18.79
2018-08-11T00:38:10.865Z,19.00
2018-08-11T00:40:40.070Z,18.74
2018-08-11T00:43:09.409Z,18.84
2018-08-11T00:45:38.579Z,18.57
2018-08-11T00:48:07.847Z,18.88
2018-08-11T00:50:37.690Z,18.36
2018-08-11T00:53:07.716Z,18.26
2018-08-11T00:55:37.794Z,18.22
2018-08-11T00:58:07.067Z,18.21
2018-08-11T01:00:36.239Z,18.33
2018-08-11T01:03:05.483Z,18.10
2018-08-11T01:05:34.751Z,18.18
2018-08-11T01:08:03.999Z,18.31
2018-08-11T01:10:33.059Z,18.48
2018-08-11T01:13:02.284Z,18.33
2018-08-11T01:15:31.516Z,18.67
2018-08-11T01:18:00.753Z,18.26
2018-08-11T01:20:29.880Z,18.35
2018-08-11T01:22:59.114Z,18.51
2018-08-11T01:25:28.246Z,18.41
2018-08-11T01:27:57.448Z,18.27
2018-08-11T01:30:26.705Z,18.33
2018-08-11T01:32:55.879Z,18.56
2018-08-11T01:35:24.977Z,18.59
2018-08-11T01:37:54.159Z,18.24
2018-08-11T01:40:23.366Z,18.24
2018-08-11T01:42:52.495Z,18.30
2018-08-11T01:45:21.680Z,18.40
2018-08-11T01:47:50.940Z,18.53
2018-08-11T01:50:20.089Z,17.63
2018-08-11T01:52:49.290Z,17.69
2018-08-11T01:55:32.833Z,18.30
2018-08-11T01:58:02.067Z,17.67
2018-08-11T02:00:31.254Z,18.20
2018-08-11T02:03:00.595Z,17.67
2018-08-11T02:05:29.710Z,18.24
2018-08-11T02:07:58.884Z,18.39
2018-08-11T02:10:28.176Z,18.18
2018-08-11T02:12:57.384Z,18.69
2018-08-11T02:15:26.550Z,18.47
2018-08-11T02:17:55.720Z,18.18
2018-08-11T02:20:24.831Z,18.36
2018-08-11T02:22:54.126Z,18.31
2018-08-11T02:25:23.250Z,18.68
2018-08-11T02:27:52.454Z,18.46
2018-08-11T02:30:21.582Z,18.45
2018-08-11T02:32:50.811Z,18.44
2018-08-11T02:35:19.978Z,18.13
2018-08-11T02:37:49.144Z,18.36
2018-08-11T02:40:18.306Z,18.65
2018-08-11T02:42:47.515Z,18.19
2018-08-11T02:45:17.757Z,18.43
2018-08-11T02:47:47.661Z,18.22
2018-08-11T02:50:16.776Z,18.30
2018-08-11T02:52:45.964Z,18.49
2018-08-11T02:55:15.198Z,18.61
2018-08-11T02:57:44.384Z,18.58
2018-08-11T03:00:13.667Z,18.54
2018-08-11T03:02:42.874Z,18.54
2018-08-11T03:05:12.064Z,18.80
2018-08-11T03:07:41.260Z,18.16
2018-08-11T03:10:11.740Z,18.12
2018-08-11T03:12:41.715Z,18.18
2018-08-11T03:15:12.237Z,18.51
2018-08-11T03:17:42.010Z,18.60
2018-08-11T03:20:13.269Z,18.75
2018-08-11T03:22:42.818Z,18.80
2018-08-11T03:25:12.079Z,18.79
2018-08-11T03:27:41.302Z,18.76
2018-08-11T03:30:10.636Z,18.57
2018-08-11T03:32:39.802Z,18.12
2018-08-11T03:35:08.956Z,18.40
2018-08-11T03:37:38.337Z,17.74
2018-08-11T03:40:09.410Z,17.62
2018-08-11T03:42:38.584Z,18.00
2018-08-11T03:45:07.794Z,18.05
2018-08-11T03:47:37.056Z,18.10
2018-08-11T03:50:06.883Z,17.90
2018-08-11T03:52:36.257Z,17.66
2018-08-11T03:55:05.460Z,17.77
2018-08-11T03:57:34.726Z,17.68
2018-08-11T04:00:03.963Z,17.96
2018-08-11T04:02:33.155Z,18.17
2018-08-11T04:05:02.271Z,17.18
2018-08-11T04:07:31.453Z,17.15
2018-08-11T04:10:01.036Z,17.60
2018-08-11T04:12:30.803Z,17.25
2018-08-11T04:15:00.185Z,17.29
2018-08-11T04:17:36.311Z,17.24
2018-08-11T04:20:05.777Z,17.12
2018-08-11T04:22:35.004Z,17.71
2018-08-11T04:25:04.325Z,18.09
2018-08-11T04:27:33.580Z,18.24
2018-08-11T04:30:03.407Z,17.88
2018-08-11T04:32:33.995Z,18.32
2018-08-11T04:35:03.236Z,18.36
2018-08-11T04:37:32.521Z,18.56
2018-08-11T04:40:01.731Z,18.37
2018-08-11T04:42:31.051Z,18.51
2018-08-11T04:45:00.321Z,18.35
2018-08-11T04:47:29.618Z,18.52
2018-08-11T04:49:58.981Z,18.32
2018-08-11T04:52:28.754Z,18.01
2018-08-11T04:54:58.016Z,18.58
2018-08-11T04:57:27.167Z,18.25
2018-08-11T04:59:56.505Z,18.29
2018-08-11T05:02:26.069Z,17.91
2018-08-11T05:04:55.538Z,18.18
2018-08-11T05:07:24.789Z,18.46
2018-08-11T05:09:54.105Z,18.31
2018-08-11T05:12:23.452Z,18.27
2018-08-11T05:14:52.733Z,18.03
2018-08-11T05:17:22.073Z,17.74
2018-08-11T05:19:51.764Z,17.90
2018-08-11T05:22:20.998Z,18.53
2018-08-11T05:24:50.726Z,18.04
2018-08-11T05:27:20.021Z,17.99
2018-08-11T05:29:49.245Z,17.71
2018-08-11T05:32:18.444Z,17.88
2018-08-11T05:34:47.983Z,18.36
2018-08-11T05:37:17.321Z,18.45
2018-08-11T05:39:46.613Z,18.33
2018-08-11T05:42:16.400Z,17.65
2018-08-11T05:44:45.696Z,18.12
2018-08-11T05:47:14.877Z,18.12
2018-08-11T05:49:44.311Z,17.76
2018-08-11T05:52:13.519Z,17.95
2018-08-11T05:54:42.790Z,18.07
2018-08-11T05:57:12.019Z,18.67
2018-08-11T05:59:41.242Z,18.90
2018-08-11T06:02:10.480Z,19.23
2018-08-11T06:04:39.857Z,18.59
2018-08-11T06:07:09.046Z,19.12
2018-08-11T06:09:38.261Z,18.56
2018-08-11T06:12:07.430Z,18.08
2018-08-11T06:14:36.610Z,18.83
2018-08-11T06:17:05.849Z,18.83
2018-08-11T06:19:35.165Z,18.43
2018-08-11T06:22:04.396Z,18.73
2018-08-11T06:24:33.629Z,18.79
2018-08-11T06:27:02.857Z,18.45
2018-08-11T06:29:32.328Z,18.26
2018-08-11T06:32:01.611Z,18.68
2018-08-11T06:34:30.955Z,18.80
2018-08-11T06:37:00.210Z,18.59
2018-08-11T06:39:29.442Z,18.99
2018-08-11T06:41:58.775Z,19.03
2018-08-11T06:44:28.011Z,19.55
2018-08-11T06:46:57.310Z,19.43
2018-08-11T06:49:26.549Z,19.25
2018-08-11T06:51:55.771Z,18.76
2018-08-11T06:54:25.209Z,18.51
2018-08-11T06:56:54.586Z,18.87
2018-08-11T06:59:23.971Z,19.16
2018-08-11T07:01:53.231Z,19.34
2018-08-11T07:04:22.611Z,19.84
2018-08-11T07:06:51.992Z,20.20
2018-08-11T07:09:21.426Z,20.26
2018-08-11T07:11:50.919Z,20.94
2018-08-11T07:14:20.237Z,21.71
2018-08-11T07:16:49.501Z,21.32
2018-08-11T07:19:18.723Z,21.18
2018-08-11T07:21:48.498Z,21.83
2018-08-11T07:24:17.893Z,21.98
2018-08-11T07:26:47.091Z,21.73
2018-08-11T07:29:16.364Z,22.23
2018-08-11T07:31:45.822Z,22.11
2018-08-11T07:34:15.993Z,22.82
2018-08-11T07:36:45.411Z,23.55
2018-08-11T07:39:15.114Z,23.95
2018-08-11T07:41:44.350Z,23.95
2018-08-11T07:44:13.556Z,23.80
2018-08-11T07:46:43.281Z,24.08
2018-08-11T07:49:13.288Z,23.85
2018-08-11T07:51:42.651Z,24.27
2018-08-11T07:54:11.878Z,24.81
2018-08-11T07:56:41.128Z,24.68
2018-08-11T07:59:10.370Z,24.42
2018-08-11T08:01:39.718Z,23.73
2018-08-11T08:04:08.939Z,24.39
2018-08-11T08:06:38.189Z,24.94
2018-08-11T08:09:10.637Z,24.35
2018-08-11T08:11:40.255Z,24.12
2018-08-11T08:14:09.825Z,24.47
2018-08-11T08:16:39.042Z,24.23
2018-08-11T08:19:08.658Z,24.40
2018-08-11T08:21:37.902Z,25.07
2018-08-11T08:24:07.116Z,25.59
2018-08-11T08:26:36.429Z,25.23
2018-08-11T08:29:05.804Z,25.16
2018-08-11T08:31:35.405Z,25.65
2018-08-11T08:34:04.599Z,25.54
2018-08-11T08:36:33.807Z,25.87
2018-08-11T08:39:03.464Z,25.35
2018-08-11T08:41:32.907Z,25.14
2018-08-11T08:44:02.173Z,25.94
2018-08-11T08:46:31.622Z,25.84
2018-08-11T08:49:00.893Z,25.52
2018-08-11T08:51:30.244Z,26.10
2018-08-11T08:53:59.879Z,25.56
2018-08-11T08:56:29.391Z,25.94
2018-08-11T08:58:58.750Z,26.12
2018-08-11T09:01:28.013Z,26.56
2018-08-11T09:03:57.877Z,26.05
2018-08-11T09:06:27.276Z,26.58
2018-08-11T09:08:56.740Z,26.56
2018-08-11T09:11:25.965Z,26.39
2018-08-11T09:13:55.115Z,26.31
2018-08-11T09:16:24.356Z,26.67
2018-08-11T09:18:53.758Z,25.76
2018-08-11T09:21:23.201Z,25.77
2018-08-11T09:23:52.565Z,26.83
2018-08-11T09:26:21.873Z,26.41
2018-08-11T09:28:51.237Z,25.93
2018-08-11T09:31:20.628Z,25.60
2018-08-11T09:33:49.919Z,27.03
2018-08-11T09:36:19.171Z,27.31
2018-08-11T09:38:48.457Z,27.73
2018-08-11T09:41:17.730Z,27.20
2018-08-11T09:43:46.950Z,27.22
2018-08-11T09:46:16.176Z,26.97
2018-08-11T09:48:45.485Z,26.70
2018-08-11T09:51:14.824Z,27.03
2018-08-11T09:53:44.180Z,27.78
2018-08-11T09:56:13.425Z,27.82
2018-08-11T09:58:42.607Z,27.22
2018-08-11T10:01:16.792Z,27.05
2018-08-11T10:03:45.987Z,26.81
2018-08-11T10:06:15.225Z,26.32
2018-08-11T10:08:44.517Z,26.15
2018-08-11T10:11:13.797Z,25.98
2018-08-11T10:13:43.126Z,25.79
2018-08-11T10:16:12.456Z,25.39
2018-08-11T10:18:41.837Z,25.53
2018-08-11T10:21:11.270Z,24.98
2018-08-11T10:23:40.436Z,25.83
2018-08-11T10:26:09.824Z,26.13
2018-08-11T10:28:39.069Z,25.73
2018-08-11T10:31:08.460Z,27.15
2018-08-11T10:33:37.776Z,26.56
2018-08-11T10:36:07.029Z,27.35
2018-08-11T10:38:36.275Z,26.54
2018-08-11T10:41:05.586Z,27.54
2018-08-11T10:43:34.894Z,26.71
2018-08-11T10:46:04.750Z,27.57
2018-08-11T10:48:34.125Z,26.65
2018-08-11T10:51:03.756Z,26.86
2018-08-11T10:53:33.127Z,26.49
2018-08-11T10:56:02.509Z,27.39
2018-08-11T10:58:31.773Z,26.75
2018-08-11T11:01:01.104Z,27.60
2018-08-11T11:03:30.318Z,27.52
2018-08-11T11:05:59.560Z,27.07
2018-08-11T11:08:29.022Z,27.02
2018-08-11T11:10:58.277Z,28.29
2018-08-11T11:13:27.564Z,27.53
2018-08-11T11:15:56.898Z,27.65
2018-08-11T11:18:26.182Z,28.11
2018-08-11T11:20:55.487Z,27.93
2018-08-11T11:23:24.835Z,26.96
2018-08-11T11:25:54.062Z,27.35
2018-08-11T11:28:23.391Z,28.88
2018-08-11T11:30:52.680Z,28.77
2018-08-11T11:33:21.981Z,29.11
2018-08-11T11:35:51.265Z,28.18
2018-08-11T11:38:20.609Z,28.12
2018-08-11T11:40:49.820Z,27.58
2018-08-11T11:43:19.352Z,28.23
2018-08-11T11:45:48.724Z,29.06
2018-08-11T11:48:18.051Z,28.39
2018-08-11T11:50:47.341Z,28.58
2018-08-11T11:53:16.724Z,28.89
2018-08-11T11:55:46.037Z,29.57
2018-08-11T11:58:15.262Z,29.11
2018-08-11T12:00:44.595Z,28.40
2018-08-11T12:03:13.937Z,29.04
2018-08-11T12:05:43.405Z,28.39
2018-08-11T12:08:12.748Z,29.46
2018-08-11T12:10:42.003Z,28.67
2018-08-11T12:13:11.339Z,28.43
2018-08-11T12:15:40.888Z,28.10
2018-08-11T12:18:10.237Z,28.15
2018-08-11T12:20:39.545Z,27.74
2018-08-11T12:23:08.782Z,27.45
2018-08-11T12:25:37.970Z,28.55
2018-08-11T12:28:07.295Z,29.08
2018-08-11T12:30:36.631Z,29.85
2018-08-11T12:33:05.987Z,29.08
2018-08-11T12:35:35.181Z,28.00
2018-08-11T12:38:04.585Z,28.60
2018-08-11T12:40:33.909Z,29.31
2018-08-11T12:43:03.466Z,29.17
2018-08-11T12:45:32.733Z,29.53
2018-08-11T12:48:02.067Z,29.79
2018-08-11T12:50:31.418Z,29.42
2018-08-11T12:53:00.662Z,30.28
2018-08-11T12:55:30.306Z,30.25
2018-08-11T12:57:59.690Z,30.28
2018-08-11T13:00:28.969Z,30.97
2018-08-11T13:02:58.206Z,29.04
2018-08-11T13:05:27.566Z,28.82
2018-08-11T13:07:56.850Z,28.93
2018-08-11T13:10:26.293Z,29.87
2018-08-11T13:12:55.650Z,29.96
2018-08-11T13:15:25.001Z,30.61
2018-08-11T13:17:54.302Z,30.54
2018-08-11T13:20:23.736Z,30.64
2018-08-11T13:22:52.726Z,30.48
2018-08-11T13:25:21.943Z,30.42
2018-08-11T13:27:50.969Z,30.82
2018-08-11T13:30:20.009Z,30.27
2018-08-11T13:32:49.022Z,29.34
2018-08-11T13:35:18.062Z,30.45
2018-08-11T13:37:47.038Z,30.40
2018-08-11T13:40:16.139Z,30.91
2018-08-11T13:42:45.254Z,30.15
2018-08-11T13:45:14.278Z,30.51
2018-08-11T13:47:43.258Z,30.25
2018-08-11T13:50:12.270Z,30.27
2018-08-11T13:52:41.233Z,31.36
2018-08-11T13:55:10.384Z,30.58
2018-08-11T13:57:39.349Z,31.24
2018-08-11T14:00:09.374Z,31.24
2018-08-11T14:02:38.398Z,30.03
2018-08-11T14:05:07.522Z,30.45
2018-08-11T14:07:36.565Z,30.46
2018-08-11T14:10:07.261Z,30.42
2018-08-11T14:12:36.212Z,30.58
2018-08-11T14:15:05.834Z,31.00
2018-08-11T14:17:34.822Z,30.20
2018-08-11T14:20:03.833Z,30.39
2018-08-11T14:22:32.899Z,30.81
2018-08-11T14:25:01.978Z,30.88
2018-08-11T14:27:30.929Z,30.16
2018-08-11T14:29:59.959Z,29.90
2018-08-11T14:32:28.930Z,29.82
2018-08-11T14:34:57.997Z,29.34
2018-08-11T14:37:26.977Z,29.63
2018-08-11T14:39:56.021Z,29.20
2018-08-11T14:42:25.143Z,29.91
2018-08-11T14:44:54.187Z,29.10
2018-08-11T14:47:23.178Z,30.28
2018-08-11T14:49:52.276Z,30.53
2018-08-11T14:52:21.409Z,30.21
2018-08-11T14:54:50.560Z,29.88
2018-08-11T14:57:19.661Z,29.77
2018-08-11T14:59:48.904Z,29.92
2018-08-11T15:02:17.981Z,29.36
2018-08-11T15:04:47.170Z,29.44
2018-08-11T15:07:16.341Z,28.95
2018-08-11T15:09:45.477Z,29.81
2018-08-11T15:12:14.527Z,29.31
2018-08-11T15:14:43.818Z,29.38
2018-08-11T15:17:12.839Z,29.12
2018-08-11T15:19:41.938Z,29.01
2018-08-11T15:22:10.905Z,29.77
2018-08-11T15:24:40.229Z,30.18
2018-08-11T15:27:09.402Z,30.38
2018-08-11T15:29:38.463Z,30.58
2018-08-11T15:32:07.534Z,30.50
2018-08-11T15:34:36.779Z,29.61
2018-08-11T15:37:06.550Z,29.70
2018-08-11T15:39:35.669Z,29.78
2018-08-11T15:42:04.913Z,29.14
2018-08-11T15:44:33.883Z,29.30
2018-08-11T15:47:02.906Z,29.67
2018-08-11T15:49:31.909Z,29.92
2018-08-11T15:52:00.934Z,30.33
2018-08-11T15:54:29.944Z,30.57
2018-08-11T15:56:58.989Z,29.84
2018-08-11T15:59:28.013Z,29.59
2018-08-11T16:01:57.038Z,30.21
2018-08-11T16:04:26.082Z,30.58
2018-08-11T16:06:55.082Z,30.36
2018-08-11T16:09:24.114Z,30.19
2018-08-11T16:11:53.166Z,30.41
2018-08-11T16:14:22.157Z,29.59
2018-08-11T16:16:51.254Z,29.64
2018-08-11T16:19:20.278Z,29.43
2018-08-11T16:21:49.316Z,29.59
2018-08-11T16:24:18.312Z,29.25
2018-08-11T16:26:47.563Z,28.97
2018-08-11T16:29:16.539Z,29.15
2018-08-11T16:31:45.603Z,29.04
2018-08-11T16:34:14.620Z,28.78
2018-08-11T16:36:43.773Z,28.35
2018-08-11T16:39:12.875Z,28.12
2018-08-11T16:41:41.897Z,28.57
2018-08-11T16:44:10.969Z,28.53
2018-08-11T16:46:40.046Z,28.97
2018-08-11T16:49:09.070Z,28.33
2018-08-11T16:51:38.069Z,28.71
2018-08-11T16:54:07.134Z,28.02
2018-08-11T16:56:36.241Z,27.91
2018-08-11T16:59:05.426Z,27.83
2018-08-11T17:01:34.505Z,27.54
2018-08-11T17:04:03.498Z,27.70
2018-08-11T17:06:32.670Z,27.57
2018-08-11T17:09:01.639Z,27.58
2018-08-11T17:11:30.650Z,27.82
2018-08-11T17:13:59.725Z,28.12
2018-08-11T17:16:28.844Z,27.49
2018-08-11T17:18:57.905Z,27.39
2018-08-11T17:21:27.051Z,27.20
2018-08-11T17:23:56.090Z,27.60
2018-08-11T17:26:25.178Z,27.39
2018-08-11T17:28:54.225Z,27.40
2018-08-11T17:31:24.401Z,27.22
2018-08-11T17:33:53.341Z,27.32
2018-08-11T17:36:22.483Z,27.45
2018-08-11T17:38:51.876Z,27.05
2018-08-11T17:41:21.186Z,26.90
2018-08-11T17:43:50.486Z,27.19
2018-08-11T17:46:19.605Z,27.12
2018-08-11T17:48:48.697Z,27.22
2018-08-11T17:51:17.951Z,27.24
2018-08-11T17:53:47.117Z,27.28
2018-08-11T17:56:16.349Z,27.10
2018-08-11T17:58:45.676Z,26.90
2018-08-11T18:01:14.817Z,26.89
2018-08-11T18:03:44.047Z,26.67
2018-08-11T18:06:13.127Z,26.71
2018-08-11T18:08:42.062Z,27.04
2018-08-11T18:11:11.166Z,26.99
2018-08-11T18:13:40.366Z,26.95
2018-08-11T18:16:09.654Z,26.64
2018-08-11T18:18:38.608Z,26.70
2018-08-11T18:21:07.720Z,26.77
2018-08-11T18:23:36.851Z,26.57
2018-08-11T18:26:05.956Z,26.53
2018-08-11T18:28:34.905Z,26.17
2018-08-11T18:31:03.890Z,26.59
2018-08-11T18:33:39.471Z,26.36
2018-08-11T18:36:08.508Z,26.60
2018-08-11T18:38:37.611Z,26.44
2018-08-11T18:41:06.758Z,26.73
2018-08-11T18:43:35.925Z,26.38
2018-08-11T18:46:06.010Z,26.67
2018-08-11T18:48:35.347Z,26.73
2018-08-11T18:51:04.461Z,26.48
2018-08-11T18:53:33.569Z,26.60
2018-08-11T18:56:02.714Z,26.48
2018-08-11T18:58:31.680Z,26.20
2018-08-11T19:01:00.724Z,26.05
2018-08-11T19:03:29.774Z,25.90
2018-08-11T19:05:58.726Z,25.83
2018-08-11T19:08:27.757Z,25.72
2018-08-11T19:10:56.743Z,25.74
2018-08-11T19:13:25.792Z,25.63
2018-08-11T19:15:54.834Z,25.73
2018-08-11T19:18:23.946Z,25.42
2018-08-11T19:20:53.041Z,25.60
2018-08-11T19:23:22.054Z,25.40
2018-08-11T19:25:51.057Z,24.82
2018-08-11T19:28:20.097Z,24.82
2018-08-11T19:30:50.122Z,24.95
2018-08-11T19:33:19.163Z,25.07
2018-08-11T19:35:48.154Z,25.16
2018-08-11T19:38:17.221Z,24.74
2018-08-11T19:40:46.186Z,24.77
2018-08-11T19:43:15.216Z,24.86
2018-08-11T19:45:44.617Z,24.65
2018-08-11T19:48:14.241Z,24.55
2018-08-11T19:50:43.343Z,24.65
2018-08-11T19:53:12.374Z,24.41
2018-08-11T19:55:41.458Z,24.45
2018-08-11T19:58:10.462Z,24.27
2018-08-11T20:00:39.530Z,24.35
2018-08-11T20:03:08.845Z,24.55
2018-08-11T20:05:37.924Z,24.55
2018-08-11T20:08:06.950Z,24.55
2018-08-11T20:10:35.984Z,24.52
2018-08-11T20:13:05.043Z,24.35
2018-08-11T20:15:34.505Z,24.51
2018-08-11T20:18:03.617Z,24.55
2018-08-11T20:20:34.911Z,24.18
2018-08-11T20:23:03.930Z,24.08
2018-08-11T20:25:33.055Z,23.91
2018-08-11T20:28:03.306Z,23.90
2018-08-11T20:30:32.333Z,23.98
2018-08-11T20:33:01.314Z,23.80
2018-08-11T20:35:30.338Z,23.73
2018-08-11T20:37:59.471Z,23.61
2018-08-11T20:40:28.578Z,23.90
2018-08-11T20:42:57.673Z,23.68
2018-08-11T20:45:26.816Z,22.72
2018-08-11T20:47:55.890Z,21.43
2018-08-11T20:50:24.874Z,22.59
2018-08-11T20:52:53.919Z,23.30
2018-08-11T20:55:23.061Z,23.25
2018-08-11T20:57:52.113Z,23.35
2018-08-11T21:00:21.443Z,23.31
2018-08-11T21:02:50.471Z,23.60
2018-08-11T21:05:19.516Z,23.65
2018-08-11T21:07:48.497Z,23.40
2018-08-11T21:10:17.600Z,23.05
2018-08-11T21:12:46.649Z,22.52
2018-08-11T21:15:15.908Z,22.39
2018-08-11T21:17:45.424Z,22.77
2018-08-11T21:20:15.311Z,23.21
2018-08-11T21:22:44.767Z,21.50
2018-08-11T21:25:13.769Z,22.23
2018-08-11T21:27:43.116Z,21.75
2018-08-11T21:30:14.160Z,22.03
2018-08-11T21:32:43.536Z,21.99
2018-08-11T21:35:12.679Z,22.16
2018-08-11T21:37:41.612Z,22.62
2018-08-11T21:40:13.116Z,22.53
2018-08-11T21:42:42.573Z,22.45
2018-08-11T21:45:11.959Z,22.29
2018-08-11T21:47:42.345Z,22.43
2018-08-11T21:50:12.137Z,22.57
2018-08-11T21:52:41.290Z,22.66
2018-08-11T21:55:10.953Z,22.51
2018-08-11T21:57:40.405Z,22.46
2018-08-11T22:00:35.674Z,22.26
2018-08-11T22:03:05.645Z,21.97
2018-08-11T22:05:35.032Z,22.16
2018-08-11T22:08:04.399Z,22.31
2018-08-11T22:10:33.474Z,22.03
2018-08-11T22:13:02.440Z,22.01
2018-08-11T22:15:31.641Z,22.41
2018-08-11T22:18:00.625Z,22.49
2018-08-11T22:20:29.935Z,22.39
2018-08-11T22:22:59.117Z,20.91
2018-08-11T22:25:28.201Z,21.41
2018-08-11T22:27:57.303Z,21.98
2018-08-11T22:30:26.369Z,22.13
2018-08-11T22:32:55.530Z,21.81
2018-08-11T22:35:25.018Z,21.76
2018-08-11T22:37:54.085Z,21.68
2018-08-11T22:40:23.184Z,21.49
2018-08-11T22:42:52.197Z,21.43
2018-08-11T22:45:21.298Z,20.86
2018-08-11T22:47:50.677Z,21.43
2018-08-11T22:50:20.187Z,20.99
2018-08-11T22:52:49.257Z,21.21
2018-08-11T22:55:18.263Z,21.18
2018-08-11T22:57:47.260Z,21.23
2018-08-11T23:00:18.897Z,20.93
2018-08-11T23:02:47.946Z,20.55
2018-08-11T23:05:18.212Z,17.51
2018-08-11T23:07:47.163Z,18.88
2018-08-11T23:10:16.930Z,19.43
2018-08-11T23:12:46.505Z,20.03
2018-08-11T23:15:16.877Z,20.40
2018-08-11T23:17:47.009Z,20.13
2018-08-11T23:20:16.501Z,20.02
2018-08-11T23:22:45.770Z,20.77
2018-08-11T23:25:15.558Z,20.25
2018-08-11T23:27:44.637Z,20.22
2018-08-11T23:30:15.777Z,20.08
2018-08-11T23:32:45.081Z,20.21
2018-08-11T23:35:14.503Z,20.41
2018-08-11T23:37:44.389Z,20.04
2018-08-11T23:40:13.450Z,19.79
2018-08-11T23:42:42.469Z,20.50
2018-08-11T23:45:14.570Z,20.28
2018-08-11T23:47:43.684Z,19.77
2018-08-11T23:50:13.601Z,20.27
2018-08-11T23:52:43.256Z,19.96
2018-08-11T23:55:13.533Z,20.03
2018-08-11T23:57:42.567Z,20.14
